sensor_id;sensor_type;location;lat;lon;timestamp;temperature;humidity
49861;DHT22;35761;48.826;9.238;2023-04-25T00:00:48;9.50;34.90
49861;DHT22;35761;48.826;9.238;2023-04-25T00:03:20;9.50;35.10
49861;DHT22;35761;48.826;9.238;2023-04-25T00:05:52;9.50;35.40
49861;DHT22;35761;48.826;9.238;2023-04-25T00:08:25;9.40;38.50
49861;DHT22;35761;48.826;9.238;2023-04-25T00:10:56;9.30;36.20
49861;DHT22;35761;48.826;9.238;2023-04-25T00:13:30;9.30;36.40
49861;DHT22;35761;48.826;9.238;2023-04-25T00:16:04;9.20;36.70
49861;DHT22;35761;48.826;9.238;2023-04-25T00:21:06;9.20;36.60
49861;DHT22;35761;48.826;9.238;2023-04-25T00:23:37;9.30;37.00
49861;DHT22;35761;48.826;9.238;2023-04-25T00:26:08;9.20;36.70
49861;DHT22;35761;48.826;9.238;2023-04-25T00:28:39;9.30;36.50
49861;DHT22;35761;48.826;9.238;2023-04-25T00:31:12;9.30;36.60
49861;DHT22;35761;48.826;9.238;2023-04-25T00:33:43;9.20;36.80
49861;DHT22;35761;48.826;9.238;2023-04-25T00:36:13;9.20;37.00
49861;DHT22;35761;48.826;9.238;2023-04-25T00:38:44;9.30;37.50
49861;DHT22;35761;48.826;9.238;2023-04-25T00:41:15;9.40;36.60
49861;DHT22;35761;48.826;9.238;2023-04-25T00:43:46;9.30;36.40
49861;DHT22;35761;48.826;9.238;2023-04-25T00:46:21;9.20;36.90
49861;DHT22;35761;48.826;9.238;2023-04-25T00:48:51;9.20;36.50
49861;DHT22;35761;48.826;9.238;2023-04-25T00:51:22;9.20;36.60
49861;DHT22;35761;48.826;9.238;2023-04-25T00:53:54;9.20;36.80
49861;DHT22;35761;48.826;9.238;2023-04-25T00:56:25;9.20;36.80
49861;DHT22;35761;48.826;9.238;2023-04-25T00:58:56;9.20;36.80
49861;DHT22;35761;48.826;9.238;2023-04-25T01:01:30;9.20;36.80
49861;DHT22;35761;48.826;9.238;2023-04-25T01:04:01;9.10;36.70
49861;DHT22;35761;48.826;9.238;2023-04-25T01:06:32;9.10;36.70
49861;DHT22;35761;48.826;9.238;2023-04-25T01:09:02;9.10;37.50
49861;DHT22;35761;48.826;9.238;2023-04-25T01:11:34;9.10;37.60
49861;DHT22;35761;48.826;9.238;2023-04-25T01:14:07;9.10;36.90
49861;DHT22;35761;48.826;9.238;2023-04-25T01:16:42;9.10;36.90
49861;DHT22;35761;48.826;9.238;2023-04-25T01:19:16;9.00;36.80
49861;DHT22;35761;48.826;9.238;2023-04-25T01:21:50;9.10;37.60
49861;DHT22;35761;48.826;9.238;2023-04-25T01:24:21;9.00;36.90
49861;DHT22;35761;48.826;9.238;2023-04-25T01:26:52;9.00;36.90
49861;DHT22;35761;48.826;9.238;2023-04-25T01:29:24;9.00;37.10
49861;DHT22;35761;48.826;9.238;2023-04-25T01:31:56;9.00;37.20
49861;DHT22;35761;48.826;9.238;2023-04-25T01:34:28;9.00;37.40
49861;DHT22;35761;48.826;9.238;2023-04-25T01:37:01;9.10;37.70
49861;DHT22;35761;48.826;9.238;2023-04-25T01:39:32;9.00;37.40
49861;DHT22;35761;48.826;9.238;2023-04-25T01:42:03;9.00;37.50
49861;DHT22;35761;48.826;9.238;2023-04-25T01:44:33;9.00;37.50
49861;DHT22;35761;48.826;9.238;2023-04-25T01:47:05;9.00;37.70
49861;DHT22;35761;48.826;9.238;2023-04-25T01:49:35;9.00;37.60
49861;DHT22;35761;48.826;9.238;2023-04-25T01:52:08;8.90;37.90
49861;DHT22;35761;48.826;9.238;2023-04-25T01:54:40;9.00;37.90
49861;DHT22;35761;48.826;9.238;2023-04-25T01:57:13;8.90;37.90
49861;DHT22;35761;48.826;9.238;2023-04-25T01:59:44;8.90;38.10
49861;DHT22;35761;48.826;9.238;2023-04-25T02:02:38;8.90;38.20
49861;DHT22;35761;48.826;9.238;2023-04-25T02:05:35;8.90;38.20
49861;DHT22;35761;48.826;9.238;2023-04-25T02:08:11;8.90;38.20
49861;DHT22;35761;48.826;9.238;2023-04-25T02:10:43;8.80;38.40
49861;DHT22;35761;48.826;9.238;2023-04-25T02:13:17;8.90;39.40
49861;DHT22;35761;48.826;9.238;2023-04-25T02:16:12;8.90;42.90
49861;DHT22;35761;48.826;9.238;2023-04-25T02:18:43;8.90;42.60
49861;DHT22;35761;48.826;9.238;2023-04-25T02:21:14;8.90;42.50
49861;DHT22;35761;48.826;9.238;2023-04-25T02:23:47;8.80;42.90
49861;DHT22;35761;48.826;9.238;2023-04-25T02:26:19;8.80;43.70
49861;DHT22;35761;48.826;9.238;2023-04-25T02:28:51;8.70;43.50
49861;DHT22;35761;48.826;9.238;2023-04-25T02:31:22;8.70;43.20
49861;DHT22;35761;48.826;9.238;2023-04-25T02:33:53;8.70;42.90
49861;DHT22;35761;48.826;9.238;2023-04-25T02:36:23;8.70;42.40
49861;DHT22;35761;48.826;9.238;2023-04-25T02:38:57;8.70;42.40
49861;DHT22;35761;48.826;9.238;2023-04-25T02:41:28;8.70;42.50
49861;DHT22;35761;48.826;9.238;2023-04-25T02:43:58;8.70;42.50
49861;DHT22;35761;48.826;9.238;2023-04-25T02:46:31;8.70;42.50
49861;DHT22;35761;48.826;9.238;2023-04-25T02:49:05;8.70;45.00
49861;DHT22;35761;48.826;9.238;2023-04-25T02:51:36;8.70;44.70
49861;DHT22;35761;48.826;9.238;2023-04-25T02:54:10;8.70;44.40
49861;DHT22;35761;48.826;9.238;2023-04-25T02:56:44;8.70;44.10
49861;DHT22;35761;48.826;9.238;2023-04-25T02:59:20;8.70;44.20
49861;DHT22;35761;48.826;9.238;2023-04-25T03:01:50;8.70;44.60
49861;DHT22;35761;48.826;9.238;2023-04-25T03:04:21;8.70;44.70
49861;DHT22;35761;48.826;9.238;2023-04-25T03:06:52;8.70;44.80
49861;DHT22;35761;48.826;9.238;2023-04-25T03:09:25;8.70;44.70
49861;DHT22;35761;48.826;9.238;2023-04-25T03:11:56;8.70;44.60
49861;DHT22;35761;48.826;9.238;2023-04-25T03:14:27;8.70;44.70
49861;DHT22;35761;48.826;9.238;2023-04-25T03:16:58;8.70;44.70
49861;DHT22;35761;48.826;9.238;2023-04-25T03:19:29;8.80;44.50
49861;DHT22;35761;48.826;9.238;2023-04-25T03:21:59;8.80;44.50
49861;DHT22;35761;48.826;9.238;2023-04-25T03:24:32;8.80;44.50
49861;DHT22;35761;48.826;9.238;2023-04-25T03:27:04;8.70;44.90
49861;DHT22;35761;48.826;9.238;2023-04-25T03:29:35;8.70;45.40
49861;DHT22;35761;48.826;9.238;2023-04-25T03:32:05;8.60;45.60
49861;DHT22;35761;48.826;9.238;2023-04-25T03:34:36;8.60;45.70
49861;DHT22;35761;48.826;9.238;2023-04-25T03:37:07;8.60;45.80
49861;DHT22;35761;48.826;9.238;2023-04-25T03:39:40;8.70;45.90
49861;DHT22;35761;48.826;9.238;2023-04-25T03:42:11;8.80;45.60
49861;DHT22;35761;48.826;9.238;2023-04-25T03:44:43;8.80;44.90
49861;DHT22;35761;48.826;9.238;2023-04-25T03:47:14;8.80;45.00
49861;DHT22;35761;48.826;9.238;2023-04-25T03:49:45;8.80;44.90
49861;DHT22;35761;48.826;9.238;2023-04-25T03:52:22;8.80;44.90
49861;DHT22;35761;48.826;9.238;2023-04-25T03:54:56;9.00;45.90
49861;DHT22;35761;48.826;9.238;2023-04-25T03:57:26;8.70;44.90
49861;DHT22;35761;48.826;9.238;2023-04-25T03:59:58;8.70;45.30
49861;DHT22;35761;48.826;9.238;2023-04-25T04:02:39;8.60;46.10
49861;DHT22;35761;48.826;9.238;2023-04-25T04:05:12;8.60;46.70
49861;DHT22;35761;48.826;9.238;2023-04-25T04:07:50;8.60;47.00
49861;DHT22;35761;48.826;9.238;2023-04-25T04:10:24;8.50;46.60
49861;DHT22;35761;48.826;9.238;2023-04-25T04:12:55;8.50;46.10
49861;DHT22;35761;48.826;9.238;2023-04-25T04:15:25;8.60;46.00
49861;DHT22;35761;48.826;9.238;2023-04-25T04:17:56;8.60;45.20
49861;DHT22;35761;48.826;9.238;2023-04-25T04:20:30;8.60;44.90
49861;DHT22;35761;48.826;9.238;2023-04-25T04:23:00;8.50;45.20
49861;DHT22;35761;48.826;9.238;2023-04-25T04:25:35;8.50;45.60
49861;DHT22;35761;48.826;9.238;2023-04-25T04:28:27;8.50;45.80
49861;DHT22;35761;48.826;9.238;2023-04-25T04:31:04;8.50;45.70
49861;DHT22;35761;48.826;9.238;2023-04-25T04:33:35;8.50;45.60
49861;DHT22;35761;48.826;9.238;2023-04-25T04:36:07;8.50;45.50
49861;DHT22;35761;48.826;9.238;2023-04-25T04:38:41;8.50;45.70
49861;DHT22;35761;48.826;9.238;2023-04-25T04:41:21;8.50;46.30
49861;DHT22;35761;48.826;9.238;2023-04-25T04:44:10;8.50;45.60
49861;DHT22;35761;48.826;9.238;2023-04-25T04:46:55;8.50;45.80
49861;DHT22;35761;48.826;9.238;2023-04-25T04:49:56;8.40;46.10
49861;DHT22;35761;48.826;9.238;2023-04-25T04:52:39;8.30;49.80
49861;DHT22;35761;48.826;9.238;2023-04-25T04:55:44;8.50;50.90
49861;DHT22;35761;48.826;9.238;2023-04-25T04:58:47;8.40;48.90
49861;DHT22;35761;48.826;9.238;2023-04-25T05:01:35;8.40;46.80
49861;DHT22;35761;48.826;9.238;2023-04-25T05:04:17;8.40;46.20
49861;DHT22;35761;48.826;9.238;2023-04-25T05:06:47;8.40;46.20
49861;DHT22;35761;48.826;9.238;2023-04-25T05:09:36;8.40;44.40
49861;DHT22;35761;48.826;9.238;2023-04-25T05:12:18;8.40;44.30
49861;DHT22;35761;48.826;9.238;2023-04-25T05:15:12;8.40;44.10
49861;DHT22;35761;48.826;9.238;2023-04-25T05:18:10;8.30;44.40
49861;DHT22;35761;48.826;9.238;2023-04-25T05:20:47;8.30;44.20
49861;DHT22;35761;48.826;9.238;2023-04-25T05:23:43;8.30;44.50
49861;DHT22;35761;48.826;9.238;2023-04-25T05:26:43;8.40;44.70
49861;DHT22;35761;48.826;9.238;2023-04-25T05:29:32;8.50;44.40
49861;DHT22;35761;48.826;9.238;2023-04-25T05:32:19;8.50;43.20
49861;DHT22;35761;48.826;9.238;2023-04-25T05:34:51;8.50;42.80
49861;DHT22;35761;48.826;9.238;2023-04-25T05:37:25;8.70;42.10
49861;DHT22;35761;48.826;9.238;2023-04-25T05:40:07;8.70;44.50
49861;DHT22;35761;48.826;9.238;2023-04-25T05:42:50;8.60;41.70
49861;DHT22;35761;48.826;9.238;2023-04-25T05:45:40;8.60;42.70
49861;DHT22;35761;48.826;9.238;2023-04-25T05:48:30;8.60;44.30
49861;DHT22;35761;48.826;9.238;2023-04-25T05:51:15;8.40;45.20
49861;DHT22;35761;48.826;9.238;2023-04-25T05:53:48;8.20;46.60
49861;DHT22;35761;48.826;9.238;2023-04-25T05:56:19;8.20;48.10
49861;DHT22;35761;48.826;9.238;2023-04-25T05:58:52;7.80;58.70
49861;DHT22;35761;48.826;9.238;2023-04-25T06:01:22;8.10;60.90
49861;DHT22;35761;48.826;9.238;2023-04-25T06:03:56;8.10;62.20
49861;DHT22;35761;48.826;9.238;2023-04-25T06:06:27;8.10;63.00
49861;DHT22;35761;48.826;9.238;2023-04-25T06:08:58;8.10;62.80
49861;DHT22;35761;48.826;9.238;2023-04-25T06:11:31;8.20;62.50
49861;DHT22;35761;48.826;9.238;2023-04-25T06:14:03;8.20;62.70
49861;DHT22;35761;48.826;9.238;2023-04-25T06:16:35;8.20;61.80
49861;DHT22;35761;48.826;9.238;2023-04-25T06:19:08;8.20;60.50
49861;DHT22;35761;48.826;9.238;2023-04-25T06:21:39;8.30;59.00
49861;DHT22;35761;48.826;9.238;2023-04-25T06:24:09;8.30;58.40
49861;DHT22;35761;48.826;9.238;2023-04-25T06:26:40;8.30;58.60
49861;DHT22;35761;48.826;9.238;2023-04-25T06:29:10;8.40;56.80
49861;DHT22;35761;48.826;9.238;2023-04-25T06:31:41;8.50;56.20
49861;DHT22;35761;48.826;9.238;2023-04-25T06:34:14;8.50;56.90
49861;DHT22;35761;48.826;9.238;2023-04-25T06:36:45;8.50;56.10
49861;DHT22;35761;48.826;9.238;2023-04-25T06:39:16;8.50;55.90
49861;DHT22;35761;48.826;9.238;2023-04-25T06:41:48;8.60;56.80
49861;DHT22;35761;48.826;9.238;2023-04-25T06:44:39;8.70;55.90
49861;DHT22;35761;48.826;9.238;2023-04-25T06:47:11;8.60;57.20
49861;DHT22;35761;48.826;9.238;2023-04-25T06:49:45;8.60;57.10
49861;DHT22;35761;48.826;9.238;2023-04-25T06:52:16;8.60;57.50
49861;DHT22;35761;48.826;9.238;2023-04-25T06:54:48;8.60;57.60
49861;DHT22;35761;48.826;9.238;2023-04-25T06:57:33;8.60;59.30
49861;DHT22;35761;48.826;9.238;2023-04-25T07:00:24;8.50;59.30
49861;DHT22;35761;48.826;9.238;2023-04-25T07:02:56;8.50;58.50
49861;DHT22;35761;48.826;9.238;2023-04-25T07:05:30;8.50;58.50
49861;DHT22;35761;48.826;9.238;2023-04-25T07:08:01;8.60;59.30
49861;DHT22;35761;48.826;9.238;2023-04-25T07:10:32;8.50;58.30
49861;DHT22;35761;48.826;9.238;2023-04-25T07:13:05;8.40;57.70
49861;DHT22;35761;48.826;9.238;2023-04-25T07:15:36;8.40;55.90
49861;DHT22;35761;48.826;9.238;2023-04-25T07:18:07;8.50;56.10
49861;DHT22;35761;48.826;9.238;2023-04-25T07:20:40;8.60;55.60
49861;DHT22;35761;48.826;9.238;2023-04-25T07:23:12;8.60;55.40
49861;DHT22;35761;48.826;9.238;2023-04-25T07:25:43;8.60;56.20
49861;DHT22;35761;48.826;9.238;2023-04-25T07:28:18;8.60;57.50
49861;DHT22;35761;48.826;9.238;2023-04-25T07:30:48;8.70;56.90
49861;DHT22;35761;48.826;9.238;2023-04-25T07:33:19;8.70;56.60
49861;DHT22;35761;48.826;9.238;2023-04-25T07:35:53;8.70;56.80
49861;DHT22;35761;48.826;9.238;2023-04-25T07:38:24;8.70;55.40
49861;DHT22;35761;48.826;9.238;2023-04-25T07:40:55;8.70;55.70
49861;DHT22;35761;48.826;9.238;2023-04-25T07:43:25;8.80;56.60
49861;DHT22;35761;48.826;9.238;2023-04-25T07:45:58;8.80;56.60
49861;DHT22;35761;48.826;9.238;2023-04-25T07:48:32;8.80;55.70
49861;DHT22;35761;48.826;9.238;2023-04-25T07:51:06;8.80;55.60
49861;DHT22;35761;48.826;9.238;2023-04-25T07:53:37;8.80;56.00
49861;DHT22;35761;48.826;9.238;2023-04-25T07:56:12;8.80;56.20
49861;DHT22;35761;48.826;9.238;2023-04-25T07:58:45;8.90;56.20
49861;DHT22;35761;48.826;9.238;2023-04-25T08:01:18;8.80;57.60
49861;DHT22;35761;48.826;9.238;2023-04-25T08:04:01;8.80;57.90
49861;DHT22;35761;48.826;9.238;2023-04-25T08:06:57;8.80;58.90
49861;DHT22;35761;48.826;9.238;2023-04-25T08:09:31;8.80;59.40
49861;DHT22;35761;48.826;9.238;2023-04-25T08:12:07;8.80;59.80
49861;DHT22;35761;48.826;9.238;2023-04-25T08:14:40;8.90;59.80
49861;DHT22;35761;48.826;9.238;2023-04-25T08:17:11;8.80;60.30
49861;DHT22;35761;48.826;9.238;2023-04-25T08:19:41;8.70;58.70
49861;DHT22;35761;48.826;9.238;2023-04-25T08:22:24;8.60;58.10
49861;DHT22;35761;48.826;9.238;2023-04-25T08:25:10;8.60;58.10
49861;DHT22;35761;48.826;9.238;2023-04-25T08:27:42;8.60;58.60
49861;DHT22;35761;48.826;9.238;2023-04-25T08:30:13;8.60;59.20
49861;DHT22;35761;48.826;9.238;2023-04-25T08:32:45;8.60;59.10
49861;DHT22;35761;48.826;9.238;2023-04-25T08:35:35;8.70;58.80
49861;DHT22;35761;48.826;9.238;2023-04-25T08:38:09;8.80;57.90
49861;DHT22;35761;48.826;9.238;2023-04-25T08:40:40;8.80;59.00
49861;DHT22;35761;48.826;9.238;2023-04-25T08:43:16;8.70;58.80
49861;DHT22;35761;48.826;9.238;2023-04-25T08:45:48;8.70;59.40
49861;DHT22;35761;48.826;9.238;2023-04-25T08:48:32;8.70;59.50
49861;DHT22;35761;48.826;9.238;2023-04-25T08:51:07;8.80;60.10
49861;DHT22;35761;48.826;9.238;2023-04-25T08:53:41;8.70;59.40
49861;DHT22;35761;48.826;9.238;2023-04-25T08:56:16;8.70;60.60
49861;DHT22;35761;48.826;9.238;2023-04-25T08:58:49;8.40;52.90
49861;DHT22;35761;48.826;9.238;2023-04-25T09:01:21;8.40;54.90
49861;DHT22;35761;48.826;9.238;2023-04-25T09:03:53;8.40;55.00
49861;DHT22;35761;48.826;9.238;2023-04-25T09:06:24;8.50;55.00
49861;DHT22;35761;48.826;9.238;2023-04-25T09:09:01;8.50;54.90
49861;DHT22;35761;48.826;9.238;2023-04-25T09:11:35;8.60;54.80
49861;DHT22;35761;48.826;9.238;2023-04-25T09:14:13;8.60;53.80
49861;DHT22;35761;48.826;9.238;2023-04-25T09:17:05;8.60;53.70
49861;DHT22;35761;48.826;9.238;2023-04-25T09:19:44;8.60;54.00
49861;DHT22;35761;48.826;9.238;2023-04-25T09:22:25;8.50;55.20
49861;DHT22;35761;48.826;9.238;2023-04-25T09:25:02;8.60;55.30
49861;DHT22;35761;48.826;9.238;2023-04-25T09:27:34;8.60;56.00
49861;DHT22;35761;48.826;9.238;2023-04-25T09:30:16;8.50;56.00
49861;DHT22;35761;48.826;9.238;2023-04-25T09:33:08;8.50;56.30
49861;DHT22;35761;48.826;9.238;2023-04-25T09:35:46;8.50;56.90
49861;DHT22;35761;48.826;9.238;2023-04-25T09:38:30;8.50;57.70
49861;DHT22;35761;48.826;9.238;2023-04-25T09:41:12;8.50;56.70
49861;DHT22;35761;48.826;9.238;2023-04-25T09:43:49;8.40;56.20
49861;DHT22;35761;48.826;9.238;2023-04-25T09:46:23;8.30;55.40
49861;DHT22;35761;48.826;9.238;2023-04-25T09:48:55;8.20;55.90
49861;DHT22;35761;48.826;9.238;2023-04-25T09:51:33;8.10;56.10
49861;DHT22;35761;48.826;9.238;2023-04-25T09:54:06;8.20;56.60
49861;DHT22;35761;48.826;9.238;2023-04-25T09:56:44;8.20;57.80
49861;DHT22;35761;48.826;9.238;2023-04-25T09:59:18;8.10;57.50
49861;DHT22;35761;48.826;9.238;2023-04-25T10:01:50;8.10;55.90
49861;DHT22;35761;48.826;9.238;2023-04-25T10:04:30;8.00;55.20
49861;DHT22;35761;48.826;9.238;2023-04-25T10:07:18;7.90;59.40
49861;DHT22;35761;48.826;9.238;2023-04-25T10:09:54;7.90;55.50
49861;DHT22;35761;48.826;9.238;2023-04-25T10:12:34;7.90;56.50
49861;DHT22;35761;48.826;9.238;2023-04-25T10:15:06;7.80;55.90
49861;DHT22;35761;48.826;9.238;2023-04-25T10:17:39;7.90;66.00
49861;DHT22;35761;48.826;9.238;2023-04-25T10:20:10;7.70;57.60
49861;DHT22;35761;48.826;9.238;2023-04-25T10:22:44;7.70;58.70
49861;DHT22;35761;48.826;9.238;2023-04-25T10:25:15;7.70;61.90
49861;DHT22;35761;48.826;9.238;2023-04-25T10:27:50;7.60;58.20
49861;DHT22;35761;48.826;9.238;2023-04-25T10:30:23;7.70;57.40
49861;DHT22;35761;48.826;9.238;2023-04-25T10:32:55;7.60;54.70
49861;DHT22;35761;48.826;9.238;2023-04-25T10:35:28;7.60;55.50
49861;DHT22;35761;48.826;9.238;2023-04-25T10:38:02;7.60;56.20
49861;DHT22;35761;48.826;9.238;2023-04-25T10:40:34;7.70;55.30
49861;DHT22;35761;48.826;9.238;2023-04-25T10:43:38;7.70;56.50
49861;DHT22;35761;48.826;9.238;2023-04-25T10:46:14;7.80;55.90
49861;DHT22;35761;48.826;9.238;2023-04-25T10:48:50;7.80;55.20
49861;DHT22;35761;48.826;9.238;2023-04-25T10:54:01;7.80;72.10
49861;DHT22;35761;48.826;9.238;2023-04-25T10:56:33;7.80;85.00
49861;DHT22;35761;48.826;9.238;2023-04-25T10:59:11;8.00;79.80
49861;DHT22;35761;48.826;9.238;2023-04-25T11:01:44;7.70;68.20
49861;DHT22;35761;48.826;9.238;2023-04-25T11:04:20;7.80;60.20
49861;DHT22;35761;48.826;9.238;2023-04-25T11:07:00;7.60;61.00
49861;DHT22;35761;48.826;9.238;2023-04-25T11:09:37;7.70;69.00
49861;DHT22;35761;48.826;9.238;2023-04-25T11:12:10;7.70;59.90
49861;DHT22;35761;48.826;9.238;2023-04-25T11:14:44;7.60;58.70
49861;DHT22;35761;48.826;9.238;2023-04-25T11:17:15;7.60;58.60
49861;DHT22;35761;48.826;9.238;2023-04-25T11:19:48;7.70;77.00
49861;DHT22;35761;48.826;9.238;2023-04-25T11:22:20;7.60;71.40
49861;DHT22;35761;48.826;9.238;2023-04-25T11:24:51;7.60;73.70
49861;DHT22;35761;48.826;9.238;2023-04-25T11:27:22;7.60;67.80
49861;DHT22;35761;48.826;9.238;2023-04-25T11:29:55;7.60;57.50
49861;DHT22;35761;48.826;9.238;2023-04-25T11:32:25;7.60;56.70
49861;DHT22;35761;48.826;9.238;2023-04-25T11:34:57;7.60;56.40
49861;DHT22;35761;48.826;9.238;2023-04-25T11:37:28;7.60;54.60
49861;DHT22;35761;48.826;9.238;2023-04-25T11:39:59;7.60;56.30
49861;DHT22;35761;48.826;9.238;2023-04-25T11:42:30;7.60;54.70
49861;DHT22;35761;48.826;9.238;2023-04-25T11:45:04;7.70;55.10
49861;DHT22;35761;48.826;9.238;2023-04-25T11:47:36;7.60;55.40
49861;DHT22;35761;48.826;9.238;2023-04-25T11:52:42;7.40;73.30
49861;DHT22;35761;48.826;9.238;2023-04-25T11:55:15;7.70;86.70
49861;DHT22;35761;48.826;9.238;2023-04-25T11:57:48;7.60;98.90
49861;DHT22;35761;48.826;9.238;2023-04-25T12:00:25;7.60;99.90
49861;DHT22;35761;48.826;9.238;2023-04-25T12:08:11;7.70;68.60
49861;DHT22;35761;48.826;9.238;2023-04-25T12:10:44;7.90;70.60
49861;DHT22;35761;48.826;9.238;2023-04-25T12:13:20;7.80;70.30
49861;DHT22;35761;48.826;9.238;2023-04-25T12:15:54;7.80;68.90
49861;DHT22;35761;48.826;9.238;2023-04-25T12:18:25;7.80;67.70
49861;DHT22;35761;48.826;9.238;2023-04-25T12:20:58;7.80;68.50
49861;DHT22;35761;48.826;9.238;2023-04-25T12:23:29;7.80;69.00
49861;DHT22;35761;48.826;9.238;2023-04-25T12:26:00;7.90;68.60
49861;DHT22;35761;48.826;9.238;2023-04-25T12:28:32;7.80;65.50
49861;DHT22;35761;48.826;9.238;2023-04-25T12:31:06;7.80;66.30
49861;DHT22;35761;48.826;9.238;2023-04-25T12:33:38;7.80;66.00
49861;DHT22;35761;48.826;9.238;2023-04-25T12:36:10;7.80;66.50
49861;DHT22;35761;48.826;9.238;2023-04-25T12:38:41;7.80;66.20
49861;DHT22;35761;48.826;9.238;2023-04-25T12:41:12;7.80;63.30
49861;DHT22;35761;48.826;9.238;2023-04-25T12:43:43;7.80;67.20
49861;DHT22;35761;48.826;9.238;2023-04-25T12:46:16;7.90;69.70
49861;DHT22;35761;48.826;9.238;2023-04-25T12:48:47;7.80;68.60
49861;DHT22;35761;48.826;9.238;2023-04-25T12:51:17;7.90;68.50
49861;DHT22;35761;48.826;9.238;2023-04-25T12:53:48;8.00;68.00
49861;DHT22;35761;48.826;9.238;2023-04-25T12:56:19;8.30;68.90
49861;DHT22;35761;48.826;9.238;2023-04-25T12:58:51;8.50;67.10
49861;DHT22;35761;48.826;9.238;2023-04-25T13:01:24;8.60;65.70
49861;DHT22;35761;48.826;9.238;2023-04-25T13:03:55;8.60;60.30
49861;DHT22;35761;48.826;9.238;2023-04-25T13:06:26;8.60;63.00
49861;DHT22;35761;48.826;9.238;2023-04-25T13:08:57;8.70;62.60
49861;DHT22;35761;48.826;9.238;2023-04-25T13:11:28;8.70;61.30
49861;DHT22;35761;48.826;9.238;2023-04-25T13:13:58;8.80;63.00
49861;DHT22;35761;48.826;9.238;2023-04-25T13:16:32;8.90;63.50
49861;DHT22;35761;48.826;9.238;2023-04-25T13:19:03;9.00;58.50
49861;DHT22;35761;48.826;9.238;2023-04-25T13:21:35;9.10;58.70
49861;DHT22;35761;48.826;9.238;2023-04-25T13:24:06;9.10;60.30
49861;DHT22;35761;48.826;9.238;2023-04-25T13:26:37;9.20;57.10
49861;DHT22;35761;48.826;9.238;2023-04-25T13:29:07;9.20;57.80
49861;DHT22;35761;48.826;9.238;2023-04-25T13:31:41;9.30;56.90
49861;DHT22;35761;48.826;9.238;2023-04-25T13:34:11;9.40;54.60
49861;DHT22;35761;48.826;9.238;2023-04-25T13:36:42;9.40;52.60
49861;DHT22;35761;48.826;9.238;2023-04-25T13:39:12;9.40;52.60
49861;DHT22;35761;48.826;9.238;2023-04-25T13:41:43;9.50;52.40
49861;DHT22;35761;48.826;9.238;2023-04-25T13:44:14;9.50;51.60
49861;DHT22;35761;48.826;9.238;2023-04-25T13:46:47;9.60;52.10
49861;DHT22;35761;48.826;9.238;2023-04-25T13:49:17;9.50;53.20
49861;DHT22;35761;48.826;9.238;2023-04-25T13:51:48;9.50;55.30
49861;DHT22;35761;48.826;9.238;2023-04-25T13:54:18;9.70;54.20
49861;DHT22;35761;48.826;9.238;2023-04-25T13:56:50;9.70;54.70
49861;DHT22;35761;48.826;9.238;2023-04-25T13:59:25;9.90;51.40
49861;DHT22;35761;48.826;9.238;2023-04-25T14:01:58;10.00;61.80
49861;DHT22;35761;48.826;9.238;2023-04-25T14:04:29;10.20;61.00
49861;DHT22;35761;48.826;9.238;2023-04-25T14:07:00;10.40;50.70
49861;DHT22;35761;48.826;9.238;2023-04-25T14:09:31;10.50;51.50
49861;DHT22;35761;48.826;9.238;2023-04-25T14:12:02;10.70;46.30
49861;DHT22;35761;48.826;9.238;2023-04-25T14:14:33;10.90;47.90
49861;DHT22;35761;48.826;9.238;2023-04-25T14:17:06;11.00;48.00
49861;DHT22;35761;48.826;9.238;2023-04-25T14:19:38;10.70;43.20
49861;DHT22;35761;48.826;9.238;2023-04-25T14:22:12;10.80;43.70
49861;DHT22;35761;48.826;9.238;2023-04-25T14:24:43;11.30;67.40
49861;DHT22;35761;48.826;9.238;2023-04-25T14:27:13;11.30;69.80
49861;DHT22;35761;48.826;9.238;2023-04-25T14:29:44;12.00;60.70
49861;DHT22;35761;48.826;9.238;2023-04-25T14:32:17;12.10;58.80
49861;DHT22;35761;48.826;9.238;2023-04-25T14:42:20;11.70;80.20
49861;DHT22;35761;48.826;9.238;2023-04-25T14:44:51;11.80;71.20
49861;DHT22;35761;48.826;9.238;2023-04-25T14:47:24;11.80;68.30
49861;DHT22;35761;48.826;9.238;2023-04-25T14:49:56;11.70;70.20
49861;DHT22;35761;48.826;9.238;2023-04-25T14:52:26;11.70;65.70
49861;DHT22;35761;48.826;9.238;2023-04-25T14:57:32;11.60;32.00
49861;DHT22;35761;48.826;9.238;2023-04-25T15:00:04;11.60;32.70
49861;DHT22;35761;48.826;9.238;2023-04-25T15:02:39;11.70;32.70
49861;DHT22;35761;48.826;9.238;2023-04-25T15:05:10;12.10;31.50
49861;DHT22;35761;48.826;9.238;2023-04-25T15:07:41;12.40;30.60
49861;DHT22;35761;48.826;9.238;2023-04-25T15:10:11;12.60;29.20
49861;DHT22;35761;48.826;9.238;2023-04-25T15:12:44;12.60;29.70
49861;DHT22;35761;48.826;9.238;2023-04-25T15:15:15;12.90;29.80
49861;DHT22;35761;48.826;9.238;2023-04-25T15:17:57;12.80;32.30
49861;DHT22;35761;48.826;9.238;2023-04-25T15:20:28;13.80;87.90
49861;DHT22;35761;48.826;9.238;2023-04-25T15:22:58;12.90;44.10
49861;DHT22;35761;48.826;9.238;2023-04-25T15:25:30;13.10;45.90
49861;DHT22;35761;48.826;9.238;2023-04-25T15:28:01;13.10;42.60
49861;DHT22;35761;48.826;9.238;2023-04-25T15:30:31;13.00;38.30
49861;DHT22;35761;48.826;9.238;2023-04-25T15:33:05;12.90;36.40
49861;DHT22;35761;48.826;9.238;2023-04-25T15:35:35;12.90;36.60
49861;DHT22;35761;48.826;9.238;2023-04-25T15:38:06;12.90;35.90
49861;DHT22;35761;48.826;9.238;2023-04-25T15:40:37;12.90;34.00
49861;DHT22;35761;48.826;9.238;2023-04-25T15:43:07;12.80;33.30
49861;DHT22;35761;48.826;9.238;2023-04-25T15:45:42;12.80;35.20
49861;DHT22;35761;48.826;9.238;2023-04-25T15:48:15;12.80;35.10
49861;DHT22;35761;48.826;9.238;2023-04-25T15:50:46;12.80;35.50
49861;DHT22;35761;48.826;9.238;2023-04-25T15:53:16;12.80;35.30
49861;DHT22;35761;48.826;9.238;2023-04-25T15:55:47;12.70;35.70
49861;DHT22;35761;48.826;9.238;2023-04-25T15:58:17;12.60;36.30
49861;DHT22;35761;48.826;9.238;2023-04-25T16:00:48;12.60;36.00
49861;DHT22;35761;48.826;9.238;2023-04-25T16:03:21;12.60;35.50
49861;DHT22;35761;48.826;9.238;2023-04-25T16:05:52;12.70;34.70
49861;DHT22;35761;48.826;9.238;2023-04-25T16:08:22;12.80;35.10
49861;DHT22;35761;48.826;9.238;2023-04-25T16:10:55;12.70;34.80
49861;DHT22;35761;48.826;9.238;2023-04-25T16:13:26;12.90;34.00
49861;DHT22;35761;48.826;9.238;2023-04-25T16:15:57;12.70;34.10
49861;DHT22;35761;48.826;9.238;2023-04-25T16:18:30;12.50;35.50
49861;DHT22;35761;48.826;9.238;2023-04-25T16:21:01;12.20;34.60
49861;DHT22;35761;48.826;9.238;2023-04-25T16:23:32;12.40;38.30
49861;DHT22;35761;48.826;9.238;2023-04-25T16:26:03;12.30;44.00
49861;DHT22;35761;48.826;9.238;2023-04-25T16:31:05;12.50;70.80
49861;DHT22;35761;48.826;9.238;2023-04-25T16:33:38;13.80;75.90
49861;DHT22;35761;48.826;9.238;2023-04-25T16:36:09;12.50;40.40
49861;DHT22;35761;48.826;9.238;2023-04-25T16:38:40;12.50;40.40
49861;DHT22;35761;48.826;9.238;2023-04-25T16:41:11;12.40;41.60
49861;DHT22;35761;48.826;9.238;2023-04-25T16:43:41;12.40;44.30
49861;DHT22;35761;48.826;9.238;2023-04-25T16:46:12;12.40;43.90
49861;DHT22;35761;48.826;9.238;2023-04-25T17:06:28;11.90;67.50
49861;DHT22;35761;48.826;9.238;2023-04-25T17:08:59;11.70;47.20